• Join FlightAware (Why Join?)
  • Login
  • US Flag 
08:48PM EDT


 

Airport Tracker/Info


-or-


 

Live Flight TrackerFlight Track Log ✈ DAL6246 ✈ 17-Oct-2013 ✈ KPWM - KLGA

Flight Track Log - Related Links

Times and Time Zones

All times are in EDT time to prevent confusion due to time zone crossing. See the DAL6246 flight status page for this flight to view local times or setup timezone preferences in your user account.

Time Position Orientation Groundspeed Altitude Reporting Facility
EDT Latitude Longitude Course Direction KTS MPH feet Rate Location/Type
02:01PM 43.6539 -70.4228 281° West 172 198 3,700  Level Boston Center
02:02PM 43.6658 -70.5056 281° West 206 237 6,300 2,700 Climbing Boston Center
02:03PM 43.6817 -70.5942 284° West 243 280 9,200 2,280 Climbing Boston Center
02:04PM 43.7019 -70.6883 287° West 243 280 10,900 1,800 Climbing Boston Center
02:05PM 43.7206 -70.8056 282° West 295 339 12,900 2,100 Climbing Boston Center
02:06PM 43.6928 -70.9211 252° West 308 354 15,100 2,160 Climbing Boston Center
02:07PM 43.6567 -71.0369 247° West 319 367 17,200 1,860 Climbing Boston Center
02:08PM 43.6372 -71.1433 256° West 332 382 18,900 1,680 Climbing Boston Center
02:09PM 43.6136 -71.2700 256° West 337 388 20,600 1,800 Climbing Boston Center
02:10PM 43.5919 -71.3967 257° West 342 394 22,600 1,680 Climbing Boston Center
02:11PM 43.5681 -71.5231 255° West 342 394 24,100 1,380 Climbing Boston Center
02:12PM 43.5292 -71.6439 246° West 342 394 25,500 900 Climbing Boston Center
02:13PM 43.4864 -71.7706 245° Southwest 352 405 26,000 240 Climbing Boston Center
02:14PM 43.4392 -71.8969 243° Southwest 366 421 26,000  Level Boston Center
02:15PM 43.3958 -72.0286 246° West 371 427 26,000  Level Boston Center
02:16PM 43.3503 -72.1544 244° Southwest 377 434 26,000  Level Boston Center
02:17PM 43.3047 -72.2861 245° Southwest 382 440 26,000  Level Boston Center
02:18PM 43.2592 -72.4144 244° Southwest 382 440 26,000 -300 Level Boston Center
02:19PM 43.2131 -72.5425 244° Southwest 382 440 25,500 -540 Descending Boston Center
02:20PM 43.1672 -72.6706 244° Southwest 382 440 25,000 -540 Descending Boston Center
02:21PM 43.1147 -72.8069 242° Southwest 377 434 24,500 -540 Descending Boston Center
02:22PM 43.0683 -72.9375 244° Southwest 377 434 24,000 -300 Descending Boston Center
02:23PM 43.0239 -73.0650 245° Southwest 382 440 24,000 -600 Level Boston Center
02:24PM 42.9794 -73.1892 244° Southwest 382 440 22,900 -1,020 Descending Boston Center
02:25PM 42.9328 -73.3106 242° Southwest 372 428 22,000 -540 Descending Boston Center
02:26PM 42.8881 -73.4206 241° Southwest 366 421 21,900  Descending Boston Center
02:27PM 42.8453 -73.5472 245° Southwest 359 413 22,000  Climbing Boston Center
02:28PM 42.8003 -73.6653 243° Southwest 354 407 22,000  Level Boston Center
02:29PM 42.7533 -73.7661 238° Southwest 361 415 22,000  Level Boston Center
02:30PM 42.6508 -73.7867 188° South 333 383 22,000 -480 Level Boston Center
02:31PM 42.5322 -73.7642 172° South 343 395 21,100 -1,020 Descending Boston Center
02:32PM 42.4242 -73.7422 171° South 370 426 20,100 -1,020 Descending Boston Center
02:33PM 42.3200 -73.7431 180° South 370 426 19,100 -600 Descending Boston Center
02:34PM 42.2303 -73.7467 182° South 370 426 19,000 -60 Descending Boston Center
02:35PM 42.1156 -73.7528 182° South 370 426 19,000  Level Boston Center
02:36PM 42.0133 -73.7589 183° South 370 426 19,000 -480 Level Boston Center
02:37PM 41.9069 -73.7678 184° South 375 432 18,100 -1,380 Descending Boston Center
02:38PM 41.8047 -73.7742 183° South 375 432 16,400 -1,920 Descending Boston Center
02:39PM 41.7006 -73.7803 183° South 375 432 14,400 -1,680 Descending Boston Center
02:40PM 41.6067 -73.7867 183° South 358 412 13,000 -1,560 Descending Boston Center
02:41PM 41.4833 -73.7833 179° South 286 329 10,700 -1,620 Descending New York TRACON
02:42PM 41.4000 -73.8000 189° South 283 326 9,200 -960 Descending New York TRACON
02:43PM 41.3333 -73.7833 169° South 275 316 8,800 -600 Descending New York TRACON
02:44PM 41.2667 -73.7333 151° Southeast 294 338 8,000 -1,200 Descending New York TRACON
02:45PM 41.2000 -73.6667 143° Southeast 287 330 6,400 -1,680 Descending New York TRACON
02:46PM 41.1333 -73.6167 151° Southeast 280 322 4,700 -1,200 Descending New York TRACON
02:47PM 41.0667 -73.6333 191° South 259 298 4,000 -420 Descending New York TRACON
02:48PM 41.0167 -73.6833 217° Southwest 253 291 4,000  Level New York TRACON
02:49PM 40.9500 -73.7333 210° Southwest 252 290 4,000 -720 Level New York TRACON
02:50PM 40.9000 -73.7833 217° Southwest 222 255 2,600 -1,200 Descending New York TRACON
02:51PM 40.8500 -73.8167 207° Southwest 181 208 1,700 -1,020 Descending New York TRACON
02:52PM 40.8167 -73.8500 217° Southwest 155 178 700 -1,020 Descending New York TRACON
02:54PM 40.7772 -73.8726 180° South  Level Estimated
03:01PM 40.7772 -73.8726 180° South  Level Estimated
03:02PM 40.7772 -73.8726 180° South  Level Estimated